Terminal Aerodrome Forecast
Issued by NWS

Home | Current Version | Previous Version | Graphics & Text | Print | Product List | Glossary On
Versions: 1 2 3 4 5 6 7 8 9 10 11 12 13
769
FTUS43 KIWX 240528
TAFSBN
TAF
KSBN 240528Z 2406/2506 32007KT P6SM SCT070
     FM240900 34008KT P6SM BKN015
     FM241400 35012KT P6SM BKN025
     FM241800 36012KT P6SM BKN040=

USA.gov is the U.S. government's official web portal to all federal, state and local government web resources and services.